createdAt,value
2018-06-13T00:00:18.935Z,16.30
2018-06-13T00:01:10.942Z,16.26
2018-06-13T00:02:04.935Z,16.25
2018-06-13T00:03:04.936Z,16.30
2018-06-13T00:04:25.561Z,16.25
2018-06-13T00:05:04.670Z,16.26
2018-06-13T00:06:05.440Z,16.29
2018-06-13T00:07:04.909Z,16.30
2018-06-13T00:08:05.935Z,16.25
2018-06-13T00:09:05.937Z,16.27
2018-06-13T00:10:05.868Z,16.11
2018-06-13T00:11:05.939Z,16.22
2018-06-13T00:12:27.438Z,16.17
2018-06-13T00:13:06.436Z,16.16
2018-06-13T00:14:06.441Z,16.22
2018-06-13T00:15:06.935Z,16.11
2018-06-13T00:16:06.937Z,16.14
2018-06-13T00:17:12.944Z,16.16
2018-06-13T00:18:08.368Z,16.11
2018-06-13T00:19:06.936Z,16.17
2018-06-13T00:21:59.705Z,16.07
2018-06-13T00:22:38.723Z,16.13
2018-06-13T00:23:38.712Z,16.10
2018-06-13T00:25:00.213Z,16.10
2018-06-13T00:25:39.218Z,16.14
2018-06-13T00:26:39.222Z,16.13
2018-06-13T00:27:39.217Z,16.14
2018-06-13T00:28:39.712Z,16.10
2018-06-13T00:29:39.711Z,16.17
2018-06-13T00:30:39.711Z,16.06
2018-06-13T00:31:39.195Z,16.16
2018-06-13T00:32:40.210Z,16.14
2018-06-13T00:33:40.211Z,16.11
2018-06-13T00:36:11.715Z,16.07
2018-06-13T00:37:11.730Z,16.11
2018-06-13T00:38:11.722Z,16.13
2018-06-13T00:39:34.220Z,16.16
2018-06-13T00:40:12.224Z,16.01
2018-06-13T00:41:11.579Z,16.04
2018-06-13T00:42:13.654Z,16.11
2018-06-13T00:43:12.737Z,16.04
2018-06-13T00:44:12.730Z,15.93
2018-06-13T00:45:33.728Z,16.14
2018-06-13T00:46:12.725Z,16.04
2018-06-13T00:47:34.223Z,16.06
2018-06-13T00:48:14.693Z,16.11
2018-06-13T00:50:45.185Z,16.04
2018-06-13T00:51:45.192Z,16.14
2018-06-13T00:52:45.192Z,16.08
2018-06-13T00:53:47.693Z,16.11
2018-06-13T00:54:45.693Z,16.06
2018-06-13T00:55:48.625Z,16.10
2018-06-13T00:57:09.173Z,16.06
2018-06-13T00:58:10.192Z,16.04
2018-06-13T00:58:45.415Z,16.11
2018-06-13T00:59:47.635Z,16.08
2018-06-13T01:00:46.192Z,15.98
2018-06-13T01:01:45.666Z,16.04
2018-06-13T01:02:52.693Z,16.01
2018-06-13T01:03:47.633Z,16.03
2018-06-13T01:04:49.125Z,15.99
2018-06-13T01:05:46.690Z,15.92
2018-06-13T01:06:53.193Z,16.04
2018-06-13T01:07:49.193Z,16.08
2018-06-13T01:09:07.550Z,16.03
2018-06-13T01:09:47.192Z,16.06
2018-06-13T01:12:18.936Z,15.95
2018-06-13T01:13:18.946Z,15.99
2018-06-13T01:14:18.943Z,16.03
2018-06-13T01:15:18.541Z,15.99
2018-06-13T01:16:19.445Z,15.91
2018-06-13T01:17:19.450Z,15.99
2018-06-13T01:18:19.443Z,15.95
2018-06-13T01:19:19.945Z,15.93
2018-06-13T01:20:19.963Z,15.96
2018-06-13T01:21:19.943Z,15.89
2018-06-13T01:22:19.943Z,15.89
2018-06-13T01:23:40.522Z,15.91
2018-06-13T01:24:47.443Z,15.80
2018-06-13T01:25:41.441Z,15.76
2018-06-13T01:26:47.448Z,15.77
2018-06-13T01:28:52.075Z,15.74
2018-06-13T01:29:52.082Z,15.76
2018-06-13T01:30:52.078Z,15.74
2018-06-13T01:31:52.589Z,15.76
2018-06-13T01:32:52.582Z,15.84
2018-06-13T01:35:24.089Z,15.76
2018-06-13T01:36:24.092Z,15.77
2018-06-13T01:37:24.097Z,15.77
2018-06-13T01:38:45.592Z,15.78
2018-06-13T01:39:45.592Z,15.76
2018-06-13T01:40:24.596Z,15.76
2018-06-13T01:41:24.592Z,15.67
2018-06-13T01:42:25.092Z,15.70
2018-06-13T01:43:46.092Z,15.68
2018-06-13T01:44:25.092Z,15.67
2018-06-13T01:45:25.159Z,15.68
2018-06-13T01:46:25.596Z,15.71
2018-06-13T01:48:56.845Z,15.71
2018-06-13T01:49:56.852Z,15.76
2018-06-13T01:50:58.292Z,15.67
2018-06-13T01:51:56.443Z,15.67
2018-06-13T01:52:56.542Z,15.64
2018-06-13T01:53:57.355Z,15.60
2018-06-13T01:54:57.351Z,15.55
2018-06-13T01:55:57.351Z,15.55
2018-06-13T01:58:50.136Z,15.52
2018-06-13T01:59:50.145Z,15.55
2018-06-13T02:00:31.082Z,15.52
2018-06-13T02:01:29.645Z,15.53
2018-06-13T02:04:00.911Z,15.55
2018-06-13T02:05:00.919Z,15.37
2018-06-13T02:06:00.931Z,15.59
2018-06-13T02:07:01.424Z,15.51
2018-06-13T02:08:15.423Z,15.51
2018-06-13T02:09:15.421Z,15.49
2018-06-13T02:10:01.419Z,15.38
2018-06-13T02:11:22.918Z,15.46
2018-06-13T02:12:22.923Z,15.40
2018-06-13T02:13:03.351Z,15.49
2018-06-13T02:14:24.918Z,15.41
2018-06-13T02:15:04.419Z,15.41
2018-06-13T02:17:35.226Z,15.48
2018-06-13T02:18:33.794Z,15.40
2018-06-13T02:19:33.794Z,15.38
2018-06-13T02:20:55.296Z,15.43
2018-06-13T02:21:33.526Z,15.41
2018-06-13T02:22:34.326Z,15.52
2018-06-13T02:23:55.299Z,15.40
2018-06-13T02:24:34.294Z,15.40
2018-06-13T02:25:55.794Z,15.43
2018-06-13T02:26:40.801Z,15.41
2018-06-13T02:27:34.798Z,15.48
2018-06-13T02:28:34.797Z,15.51
2018-06-13T02:29:35.294Z,15.55
2018-06-13T02:30:56.294Z,15.49
2018-06-13T02:31:35.303Z,15.44
2018-06-13T02:32:35.294Z,15.49
2018-06-13T02:35:28.062Z,15.51
2018-06-13T02:36:30.518Z,15.51
2018-06-13T02:37:29.037Z,15.55
2018-06-13T02:38:09.549Z,15.38
2018-06-13T02:39:29.544Z,15.48
2018-06-13T02:40:07.549Z,15.49
2018-06-13T02:41:10.043Z,15.44
2018-06-13T02:42:08.043Z,15.44
2018-06-13T02:43:08.049Z,15.43
2018-06-13T02:44:28.376Z,15.34
2018-06-13T02:46:39.622Z,15.28
2018-06-13T02:47:39.633Z,15.34
2018-06-13T02:48:39.694Z,15.28
2018-06-13T02:49:40.130Z,15.30
2018-06-13T02:50:40.129Z,15.31
2018-06-13T02:51:39.484Z,15.34
2018-06-13T02:52:40.130Z,15.22
2018-06-13T02:55:11.873Z,15.22
2018-06-13T02:56:32.880Z,15.15
2018-06-13T02:57:11.880Z,15.15
2018-06-13T02:58:17.312Z,15.15
2018-06-13T02:59:12.380Z,15.16
2018-06-13T03:00:26.380Z,15.11
2018-06-13T03:01:32.837Z,15.05
2018-06-13T03:02:14.879Z,15.09
2018-06-13T03:03:12.880Z,15.00
2018-06-13T03:04:26.880Z,14.94
2018-06-13T03:05:12.880Z,14.97
2018-06-13T03:06:13.380Z,14.83
2018-06-13T03:07:13.378Z,14.86
2018-06-13T03:08:13.387Z,14.79
2018-06-13T03:09:13.380Z,14.82
2018-06-13T03:10:13.880Z,14.72
2018-06-13T03:11:13.880Z,14.66
2018-06-13T03:12:13.886Z,14.71
2018-06-13T03:13:13.881Z,14.57
2018-06-13T03:15:45.661Z,14.57
2018-06-13T03:18:17.154Z,14.46
2018-06-13T03:19:38.160Z,14.46
2018-06-13T03:20:17.158Z,14.48
2018-06-13T03:21:38.667Z,14.49
2018-06-13T03:22:38.661Z,14.49
2018-06-13T03:23:17.010Z,14.31
2018-06-13T03:24:38.665Z,14.39
2018-06-13T03:25:18.162Z,14.38
2018-06-13T03:26:19.594Z,14.38
2018-06-13T03:27:18.178Z,14.31
2018-06-13T03:28:19.594Z,14.34
2018-06-13T03:29:39.661Z,14.27
2018-06-13T03:30:18.664Z,14.26
2018-06-13T03:31:32.672Z,14.17
2018-06-13T03:32:18.659Z,14.12
2018-06-13T03:33:40.162Z,14.12
2018-06-13T03:34:19.169Z,14.13
2018-06-13T03:35:19.222Z,14.09
2018-06-13T03:36:20.602Z,14.06
2018-06-13T03:37:40.708Z,13.91
2018-06-13T03:38:40.666Z,13.96
2018-06-13T03:40:51.031Z,13.94
2018-06-13T03:42:12.041Z,13.83
2018-06-13T03:42:51.038Z,13.81
2018-06-13T03:43:51.540Z,13.87
2018-06-13T03:45:12.539Z,13.80
2018-06-13T03:45:51.539Z,13.76
2018-06-13T03:46:51.581Z,13.79
2018-06-13T03:47:51.178Z,13.81
2018-06-13T03:48:52.996Z,13.80
2018-06-13T03:50:06.071Z,13.83
2018-06-13T03:50:52.055Z,13.94
2018-06-13T03:51:52.040Z,13.84
2018-06-13T03:52:53.971Z,13.80
2018-06-13T03:53:51.761Z,13.83
2018-06-13T03:54:54.001Z,13.81
2018-06-13T03:55:52.535Z,13.88
2018-06-13T03:57:13.121Z,13.93
2018-06-13T03:57:52.237Z,13.87
2018-06-13T03:58:52.327Z,13.86
2018-06-13T03:59:53.038Z,13.84
2018-06-13T04:01:53.545Z,13.99
2018-06-13T04:02:53.538Z,14.06
2018-06-13T04:03:53.538Z,14.11
2018-06-13T04:04:53.542Z,14.05
2018-06-13T04:07:31.283Z,13.98
2018-06-13T04:08:46.290Z,13.94
2018-06-13T04:09:26.248Z,13.99
2018-06-13T04:10:25.787Z,14.02
2018-06-13T04:11:27.791Z,14.01
2018-06-13T04:12:25.788Z,13.99
2018-06-13T04:13:46.790Z,14.02
2018-06-13T04:14:26.286Z,14.01
2018-06-13T04:15:26.293Z,14.04
2018-06-13T04:16:26.286Z,14.05
2018-06-13T04:17:26.287Z,14.01
2018-06-13T04:18:49.792Z,14.06
2018-06-13T04:19:26.792Z,14.12
2018-06-13T04:20:26.153Z,14.13
2018-06-13T04:21:26.786Z,14.13
2018-06-13T04:22:29.291Z,14.12
2018-06-13T04:23:27.286Z,14.20
2018-06-13T04:24:26.635Z,14.24
2018-06-13T04:25:27.287Z,14.26
2018-06-13T04:26:26.910Z,14.35
2018-06-13T04:27:27.787Z,14.34
2018-06-13T04:28:27.784Z,14.35
2018-06-13T04:29:27.787Z,14.30
2018-06-13T04:30:49.286Z,14.42
2018-06-13T04:31:28.286Z,14.46
2018-06-13T04:32:28.286Z,14.45
2018-06-13T04:33:27.758Z,14.54
2018-06-13T04:34:28.788Z,14.64
2018-06-13T04:35:28.785Z,14.56
2018-06-13T04:36:28.788Z,14.72
2018-06-13T04:37:28.787Z,14.60
2018-06-13T04:38:50.286Z,14.66
2018-06-13T04:39:29.290Z,14.67
2018-06-13T04:40:29.286Z,14.63
2018-06-13T04:41:29.285Z,14.66
2018-06-13T04:42:50.786Z,14.72
2018-06-13T04:43:29.794Z,14.80
2018-06-13T04:44:29.785Z,14.75
2018-06-13T04:45:31.251Z,14.66
2018-06-13T04:46:29.350Z,14.79
2018-06-13T04:49:01.597Z,14.87
2018-06-13T04:50:00.947Z,14.86
2018-06-13T04:51:01.602Z,15.00
2018-06-13T04:52:04.104Z,14.98
2018-06-13T04:53:03.082Z,15.09
2018-06-13T04:54:23.108Z,15.11
2018-06-13T04:55:22.560Z,15.05
2018-06-13T04:57:33.822Z,15.22
2018-06-13T04:58:47.823Z,15.22
2018-06-13T04:59:33.823Z,15.22
2018-06-13T05:00:40.323Z,15.31
2018-06-13T05:01:55.323Z,15.34
2018-06-13T05:02:55.329Z,15.33
2018-06-13T05:03:34.325Z,15.41
2018-06-13T05:04:34.825Z,15.38
2018-06-13T05:05:34.823Z,15.35
2018-06-13T05:06:55.823Z,15.44
2018-06-13T05:07:34.824Z,15.35
2018-06-13T05:10:06.573Z,15.38
2018-06-13T05:11:06.581Z,15.56
2018-06-13T05:12:06.574Z,15.49
2018-06-13T05:13:09.074Z,15.44
2018-06-13T05:14:07.091Z,15.51
2018-06-13T05:15:07.074Z,15.51
2018-06-13T05:16:07.074Z,15.41
2018-06-13T05:17:28.575Z,15.62
2018-06-13T05:18:07.571Z,15.56
2018-06-13T05:19:07.567Z,15.64
2018-06-13T05:20:07.571Z,15.52
2018-06-13T05:21:08.074Z,15.56
2018-06-13T05:22:08.074Z,15.66
2018-06-13T05:23:08.074Z,15.71
2018-06-13T05:24:08.079Z,15.73
2018-06-13T05:25:08.572Z,15.64
2018-06-13T05:26:08.576Z,15.74
2018-06-13T05:27:08.574Z,15.71
2018-06-13T05:28:08.575Z,15.77
2018-06-13T05:29:09.070Z,15.84
2018-06-13T05:30:15.091Z,15.81
2018-06-13T05:31:09.080Z,15.78
2018-06-13T05:32:09.074Z,15.78
2018-06-13T05:33:32.548Z,15.85
2018-06-13T05:35:40.446Z,15.80
2018-06-13T05:36:40.294Z,15.78
2018-06-13T05:38:03.938Z,15.85
2018-06-13T05:38:40.566Z,15.76
2018-06-13T05:40:04.441Z,15.71
2018-06-13T05:40:41.438Z,15.77
2018-06-13T05:41:40.912Z,15.88
2018-06-13T05:42:41.933Z,15.86
2018-06-13T05:44:02.938Z,15.80
2018-06-13T05:44:41.942Z,15.84
2018-06-13T05:46:02.969Z,15.86
2018-06-13T05:46:42.440Z,15.89
2018-06-13T05:48:03.438Z,15.85
2018-06-13T05:49:03.442Z,15.73
2018-06-13T05:49:42.870Z,15.78
2018-06-13T05:50:42.003Z,15.66
2018-06-13T05:51:42.941Z,15.66
2018-06-13T05:52:42.932Z,15.70
2018-06-13T05:53:42.942Z,15.77
2018-06-13T05:54:46.370Z,15.84
2018-06-13T05:56:03.509Z,15.81
2018-06-13T05:57:03.596Z,15.85
2018-06-13T05:58:04.436Z,15.92
2018-06-13T06:01:46.408Z,15.64
2018-06-13T06:02:46.400Z,15.67
2018-06-13T06:04:07.400Z,15.58
2018-06-13T06:04:46.901Z,15.55
2018-06-13T06:05:46.906Z,15.53
2018-06-13T06:06:46.247Z,15.58
2018-06-13T06:07:46.899Z,15.64
2018-06-13T06:08:47.401Z,15.52
2018-06-13T06:09:47.408Z,15.56
2018-06-13T06:10:47.400Z,15.62
2018-06-13T06:12:14.913Z,15.76
2018-06-13T06:12:53.898Z,15.74
2018-06-13T06:15:19.839Z,15.89
2018-06-13T06:16:40.985Z,15.84
2018-06-13T06:17:19.785Z,15.77
2018-06-13T06:18:19.814Z,15.74
2018-06-13T06:19:40.790Z,15.68
2018-06-13T06:20:22.295Z,15.59
2018-06-13T06:21:19.523Z,15.58
2018-06-13T06:22:20.288Z,15.60
2018-06-13T06:23:20.287Z,15.73
2018-06-13T06:27:25.494Z,15.98
2018-06-13T06:28:23.500Z,15.89
2018-06-13T06:29:23.500Z,16.01
2018-06-13T06:30:45.001Z,15.93
2018-06-13T06:33:09.382Z,16.06
2018-06-13T06:33:55.389Z,16.06
2018-06-13T06:34:55.389Z,15.99
2018-06-13T06:37:27.144Z,16.08
2018-06-13T06:38:26.521Z,16.13
2018-06-13T06:39:28.082Z,16.13
2018-06-13T06:40:29.650Z,16.18
2018-06-13T06:41:26.870Z,16.27
2018-06-13T06:42:27.652Z,16.14
2018-06-13T06:43:27.151Z,16.22
2018-06-13T06:44:42.151Z,16.16
2018-06-13T06:45:27.383Z,16.27
2018-06-13T06:46:28.150Z,16.29
2018-06-13T06:47:42.151Z,16.14
2018-06-13T06:49:59.939Z,16.22
2018-06-13T06:50:59.943Z,16.29
2018-06-13T06:51:59.422Z,16.33
2018-06-13T06:53:14.443Z,16.37
2018-06-13T06:54:06.445Z,16.40
2018-06-13T06:55:21.484Z,16.36
2018-06-13T06:56:00.443Z,16.26
2018-06-13T06:57:00.042Z,16.25
2018-06-13T06:58:14.944Z,16.23
2018-06-13T06:59:00.948Z,16.25
2018-06-13T07:00:09.935Z,16.26
2018-06-13T07:01:15.448Z,16.11
2018-06-13T07:02:15.443Z,16.18
2018-06-13T07:04:32.211Z,16.36
2018-06-13T07:05:32.331Z,16.32
2018-06-13T07:06:32.945Z,16.25
2018-06-13T07:07:32.554Z,16.25
2018-06-13T07:08:34.399Z,16.29
2018-06-13T07:09:33.449Z,16.26
2018-06-13T07:10:33.448Z,16.22
2018-06-13T07:11:32.942Z,16.07
2018-06-13T07:12:33.945Z,16.16
2018-06-13T07:13:35.379Z,16.26
2018-06-13T07:14:54.276Z,16.29
2018-06-13T07:17:07.521Z,16.32
2018-06-13T07:18:19.540Z,16.41
2018-06-13T07:19:06.999Z,16.42
2018-06-13T07:20:12.034Z,16.34
2018-06-13T07:21:30.026Z,16.34
2018-06-13T07:22:33.045Z,16.44
2018-06-13T07:24:38.182Z,16.48
2018-06-13T07:25:38.170Z,16.42
2018-06-13T07:26:40.178Z,16.37
2018-06-13T07:27:37.799Z,16.41
2018-06-13T07:28:38.671Z,16.47
2018-06-13T07:29:38.020Z,16.48
2018-06-13T07:30:38.676Z,16.60
2018-06-13T07:31:45.173Z,16.59
2018-06-13T07:32:39.170Z,16.55
2018-06-13T07:33:39.207Z,16.62
2018-06-13T07:34:39.176Z,16.54
2018-06-13T07:37:12.930Z,16.78
2018-06-13T07:38:16.937Z,16.57
2018-06-13T07:39:11.942Z,16.45
2018-06-13T07:43:14.108Z,16.44
2018-06-13T07:44:14.112Z,16.48
2018-06-13T07:45:35.112Z,16.33
2018-06-13T07:46:13.716Z,16.32
2018-06-13T07:47:35.622Z,16.40
2018-06-13T07:48:13.974Z,16.34
2018-06-13T07:49:14.612Z,16.30
2018-06-13T07:50:42.114Z,16.29
2018-06-13T07:51:15.121Z,16.33
2018-06-13T07:55:18.041Z,16.18
2018-06-13T07:56:18.049Z,16.13
2018-06-13T07:57:18.048Z,16.08
2018-06-13T07:58:24.551Z,16.01
2018-06-13T07:59:17.783Z,16.13
2018-06-13T08:02:11.072Z,16.33
2018-06-13T08:02:53.501Z,16.47
2018-06-13T08:03:50.567Z,16.54
2018-06-13T08:05:04.573Z,16.27
2018-06-13T08:05:50.566Z,16.25
2018-06-13T08:06:50.566Z,16.36
2018-06-13T08:08:05.067Z,16.40
2018-06-13T08:08:51.068Z,16.52
2018-06-13T08:09:51.070Z,16.57
2018-06-13T08:10:51.078Z,16.55
2018-06-13T08:14:54.309Z,16.84
2018-06-13T08:16:15.277Z,16.85
2018-06-13T08:16:55.323Z,16.87
2018-06-13T08:17:54.790Z,16.67
2018-06-13T08:18:54.010Z,16.75
2018-06-13T08:19:54.775Z,16.67
2018-06-13T08:20:54.775Z,16.75
2018-06-13T08:22:16.274Z,16.66
2018-06-13T08:22:55.271Z,16.59
2018-06-13T08:25:47.765Z,16.54
2018-06-13T08:26:26.769Z,16.59
2018-06-13T08:27:26.769Z,16.47
2018-06-13T08:28:48.237Z,16.44
2018-06-13T08:29:41.276Z,16.51
2018-06-13T08:30:27.268Z,16.57
2018-06-13T08:31:27.267Z,16.51
2018-06-13T08:32:27.829Z,16.60
2018-06-13T08:33:27.058Z,16.57
2018-06-13T08:34:27.770Z,16.54
2018-06-13T08:35:27.768Z,16.59
2018-06-13T08:37:59.520Z,16.66
2018-06-13T08:40:31.020Z,16.47
2018-06-13T08:41:31.032Z,16.48
2018-06-13T08:42:32.031Z,16.51
2018-06-13T08:43:31.530Z,16.59
2018-06-13T08:44:31.536Z,16.48
2018-06-13T08:45:31.532Z,16.55
2018-06-13T08:46:31.533Z,16.48
2018-06-13T08:47:52.121Z,16.52
2018-06-13T08:48:33.489Z,16.37
2018-06-13T08:49:32.032Z,16.36
2018-06-13T08:50:34.035Z,16.26
2018-06-13T08:51:32.033Z,16.33
2018-06-13T08:52:53.533Z,16.34
2018-06-13T08:53:32.964Z,16.40
2018-06-13T08:54:38.534Z,16.40
2018-06-13T08:55:32.009Z,16.45
2018-06-13T08:56:33.038Z,16.42
2018-06-13T08:57:35.031Z,16.54
2018-06-13T08:58:55.473Z,16.51
2018-06-13T08:59:54.033Z,16.59
2018-06-13T09:01:39.533Z,16.77
2018-06-13T09:02:33.531Z,16.70
2018-06-13T09:03:54.472Z,16.78
2018-06-13T09:04:54.534Z,16.82
2018-06-13T09:05:33.538Z,16.92
2018-06-13T09:06:33.131Z,16.88
2018-06-13T09:07:57.036Z,17.05
2018-06-13T09:10:04.849Z,16.54
2018-06-13T09:11:05.537Z,16.52
2018-06-13T09:12:05.540Z,16.48
2018-06-13T09:13:27.042Z,16.52
2018-06-13T09:14:06.039Z,16.54
2018-06-13T09:15:05.393Z,16.52
2018-06-13T09:16:06.051Z,16.57
2018-06-13T09:17:07.974Z,16.62
2018-06-13T09:18:06.542Z,16.70
2018-06-13T09:19:29.540Z,16.75
2018-06-13T09:20:05.891Z,16.69
2018-06-13T09:21:06.541Z,16.84
2018-06-13T09:22:09.039Z,16.88
2018-06-13T09:23:27.245Z,17.03
2018-06-13T09:24:06.348Z,17.07
2018-06-13T09:25:30.040Z,16.92
2018-06-13T09:26:27.559Z,16.85
2018-06-13T09:27:07.543Z,16.80
2018-06-13T09:28:09.545Z,16.69
2018-06-13T09:29:07.540Z,16.82
2018-06-13T09:30:07.541Z,16.77
2018-06-13T09:31:08.056Z,16.81
2018-06-13T09:32:08.539Z,16.81
2018-06-13T09:33:14.040Z,16.82
2018-06-13T09:34:08.039Z,16.84
2018-06-13T09:35:10.541Z,16.85
2018-06-13T09:36:10.541Z,16.80
2018-06-13T09:37:29.608Z,16.77
2018-06-13T09:38:10.973Z,16.78
2018-06-13T09:39:30.040Z,16.81
2018-06-13T09:40:09.037Z,16.85
2018-06-13T09:41:30.039Z,16.90
2018-06-13T09:42:09.041Z,16.92
2018-06-13T09:43:09.539Z,16.95
2018-06-13T09:44:30.540Z,16.95
2018-06-13T09:45:30.540Z,16.98
2018-06-13T09:46:12.014Z,17.07
2018-06-13T09:47:24.041Z,17.03
2018-06-13T09:48:09.270Z,17.12
2018-06-13T09:49:11.472Z,17.10
2018-06-13T09:50:11.517Z,17.18
2018-06-13T09:51:30.577Z,17.25
2018-06-13T09:52:31.546Z,17.17
2018-06-13T09:53:09.757Z,17.25
2018-06-13T09:54:31.550Z,17.33
2018-06-13T09:55:10.539Z,17.35
2018-06-13T09:56:11.041Z,17.39
2018-06-13T09:57:32.041Z,17.40
2018-06-13T09:58:11.043Z,17.38
2018-06-13T10:01:05.977Z,17.14
2018-06-13T10:02:06.728Z,17.10
2018-06-13T10:02:45.695Z,17.30
2018-06-13T10:04:06.277Z,17.28
2018-06-13T10:05:13.191Z,17.27
2018-06-13T10:05:46.185Z,17.27
2018-06-13T10:07:08.186Z,17.43
2018-06-13T10:08:06.774Z,17.38
2018-06-13T10:09:07.687Z,17.40
2018-06-13T10:09:46.685Z,17.36
2018-06-13T10:12:18.222Z,17.54
2018-06-13T10:13:17.572Z,17.62
2018-06-13T10:14:18.237Z,17.54
2018-06-13T10:15:17.839Z,17.70
2018-06-13T10:16:18.729Z,17.74
2018-06-13T10:17:18.732Z,17.83
2018-06-13T10:18:29.665Z,18.02
2018-06-13T10:19:19.231Z,18.11
2018-06-13T10:20:40.237Z,18.21
2018-06-13T10:21:19.272Z,18.28
2018-06-13T10:22:19.233Z,18.28
2018-06-13T10:23:19.735Z,18.10
2018-06-13T10:24:19.763Z,18.10
2018-06-13T10:25:19.077Z,18.02
2018-06-13T10:26:19.729Z,18.20
2018-06-13T10:28:51.501Z,18.10
2018-06-13T10:29:50.831Z,17.98
2018-06-13T10:30:51.489Z,17.92
2018-06-13T10:31:52.000Z,17.92
2018-06-13T10:32:52.986Z,17.91
2018-06-13T10:35:39.925Z,17.77
2018-06-13T10:36:23.491Z,17.73
2018-06-13T10:37:24.950Z,17.58
2018-06-13T10:40:16.195Z,17.39
2018-06-13T10:40:57.202Z,17.25
2018-06-13T10:41:55.199Z,17.20
2018-06-13T10:43:09.702Z,17.21
2018-06-13T10:43:54.937Z,17.22
2018-06-13T10:45:16.702Z,17.32
2018-06-13T10:45:55.704Z,17.39
2018-06-13T10:48:27.467Z,17.30
2018-06-13T10:49:49.451Z,17.36
2018-06-13T10:50:27.454Z,17.43
2018-06-13T10:53:00.158Z,17.66
2018-06-13T10:54:00.222Z,17.65
2018-06-13T10:55:20.219Z,17.77
2018-06-13T10:56:26.725Z,17.74
2018-06-13T10:58:31.102Z,17.79
2018-06-13T10:59:31.102Z,17.79
2018-06-13T11:00:31.113Z,17.79
2018-06-13T11:01:35.082Z,17.73
2018-06-13T11:02:53.617Z,17.77
2018-06-13T11:03:31.606Z,17.77
2018-06-13T11:04:32.135Z,17.62
2018-06-13T11:05:31.261Z,17.74
2018-06-13T11:08:09.503Z,17.71
2018-06-13T11:09:03.521Z,17.74
2018-06-13T11:10:24.519Z,17.84
2018-06-13T11:12:34.843Z,17.99
2018-06-13T11:13:56.764Z,18.09
2018-06-13T11:14:57.694Z,18.11
2018-06-13T11:15:35.770Z,18.02
2018-06-13T11:16:36.717Z,18.11
2018-06-13T11:17:36.263Z,18.26
2018-06-13T11:20:07.647Z,18.39
2018-06-13T11:21:08.149Z,18.28
2018-06-13T11:22:08.150Z,18.11
2018-06-13T11:23:10.083Z,18.21
2018-06-13T11:24:09.151Z,18.16
2018-06-13T11:25:08.160Z,18.04
2018-06-13T11:26:08.675Z,17.99
2018-06-13T11:29:13.514Z,17.80
2018-06-13T11:30:13.518Z,17.76
2018-06-13T11:30:54.523Z,17.79
2018-06-13T11:33:38.032Z,17.80
2018-06-13T11:34:23.417Z,17.77
2018-06-13T11:35:24.039Z,17.83
2018-06-13T11:36:38.540Z,17.74
2018-06-13T11:38:55.917Z,17.70
2018-06-13T11:39:55.922Z,17.74
2018-06-13T11:40:55.921Z,17.83
2018-06-13T11:42:19.422Z,17.96
2018-06-13T11:42:57.896Z,18.05
2018-06-13T11:43:57.420Z,18.10
2018-06-13T11:44:56.423Z,18.25
2018-06-13T11:49:20.864Z,18.72
2018-06-13T11:49:59.667Z,19.02
2018-06-13T11:51:01.612Z,19.24
2018-06-13T11:51:59.643Z,19.40
2018-06-13T11:53:14.146Z,19.43
2018-06-13T11:54:00.159Z,19.46
2018-06-13T11:55:00.151Z,19.40
2018-06-13T11:56:00.159Z,19.17
2018-06-13T11:57:21.644Z,19.09
2018-06-13T11:58:14.646Z,19.02
2018-06-13T11:59:21.655Z,18.93
2018-06-13T12:00:21.667Z,18.93
2018-06-13T12:01:22.143Z,18.86
2018-06-13T12:02:22.145Z,18.66
2018-06-13T12:03:24.096Z,18.53
2018-06-13T12:05:32.742Z,18.36
2018-06-13T12:06:32.740Z,18.17
2018-06-13T12:07:32.742Z,18.31
2018-06-13T12:10:25.491Z,18.38
2018-06-13T12:11:31.553Z,18.51
2018-06-13T12:12:04.499Z,18.39
2018-06-13T12:13:04.997Z,18.50
2018-06-13T12:14:27.455Z,18.60
2018-06-13T12:15:05.007Z,18.53
2018-06-13T12:16:04.998Z,18.25
2018-06-13T12:17:19.499Z,18.25
2018-06-13T12:18:04.726Z,18.38
2018-06-13T12:19:26.503Z,18.36
2018-06-13T12:20:04.981Z,18.38
2018-06-13T12:21:33.008Z,18.41
2018-06-13T12:22:06.000Z,18.41
2018-06-13T12:23:27.005Z,18.35
2018-06-13T12:24:06.001Z,18.47
2018-06-13T12:25:26.584Z,18.57
2018-06-13T12:26:06.499Z,18.53
2018-06-13T12:27:27.499Z,18.60
2018-06-13T12:28:06.501Z,18.49
2018-06-13T12:29:06.128Z,18.59
2018-06-13T12:30:06.999Z,18.75
2018-06-13T12:32:59.502Z,18.79
2018-06-13T12:33:38.505Z,18.82
2018-06-13T12:34:38.029Z,18.84
2018-06-13T12:35:39.008Z,18.82
2018-06-13T12:36:39.012Z,18.68
2018-06-13T12:37:39.006Z,18.64
2018-06-13T12:38:39.023Z,18.53
2018-06-13T12:39:39.505Z,18.53
2018-06-13T12:40:38.752Z,18.54
2018-06-13T12:42:00.509Z,18.47
2018-06-13T12:42:38.983Z,18.50
2018-06-13T12:43:46.004Z,18.39
2018-06-13T12:44:40.011Z,18.39
2018-06-13T12:46:01.003Z,18.25
2018-06-13T12:46:41.442Z,18.32
2018-06-13T12:47:40.505Z,18.19
2018-06-13T12:48:40.516Z,18.46
2018-06-13T12:49:40.513Z,18.47
2018-06-13T12:50:48.484Z,18.68
2018-06-13T12:51:39.987Z,18.86
2018-06-13T12:52:41.017Z,19.10
2018-06-13T12:53:41.938Z,19.30
2018-06-13T12:56:13.911Z,20.04
2018-06-13T12:57:12.487Z,20.05
2018-06-13T12:58:12.489Z,20.12
2018-06-13T12:59:27.977Z,20.17
2018-06-13T13:00:12.979Z,20.31
2018-06-13T13:01:17.911Z,20.26
2018-06-13T13:02:12.446Z,20.40
2018-06-13T13:03:19.480Z,20.40
2018-06-13T13:04:34.481Z,20.27
2018-06-13T13:06:58.987Z,19.94
2018-06-13T13:07:44.990Z,19.82
2018-06-13T13:08:46.427Z,19.52
2018-06-13T13:11:23.240Z,19.21
2018-06-13T13:12:38.247Z,19.05
2018-06-13T13:13:16.601Z,18.93
2018-06-13T13:14:17.302Z,18.83
2018-06-13T13:16:48.997Z,18.59
2018-06-13T13:17:55.049Z,18.47
2018-06-13T13:19:10.100Z,18.51
2018-06-13T13:21:20.726Z,18.39
2018-06-13T13:22:20.075Z,18.46
2018-06-13T13:23:20.732Z,18.46
2018-06-13T13:24:21.232Z,18.41
2018-06-13T13:26:52.618Z,18.21
2018-06-13T13:27:52.155Z,18.20
2018-06-13T13:28:52.222Z,18.14
2018-06-13T13:29:53.125Z,18.20
2018-06-13T13:31:14.125Z,18.20
2018-06-13T13:31:53.130Z,18.19
2018-06-13T13:33:16.624Z,18.31
2018-06-13T13:33:53.626Z,18.35
2018-06-13T13:34:53.000Z,18.31
2018-06-13T13:35:53.621Z,18.19
2018-06-13T13:36:54.125Z,18.05
2018-06-13T13:37:54.130Z,18.04
2018-06-13T13:39:15.134Z,18.05
2018-06-13T13:39:53.632Z,17.99
2018-06-13T13:41:14.705Z,17.84
2018-06-13T13:41:54.632Z,17.87
2018-06-13T13:42:53.888Z,18.05
2018-06-13T13:43:57.595Z,18.02
2018-06-13T13:44:54.079Z,18.04
2018-06-13T13:49:03.818Z,18.01
2018-06-13T13:49:57.172Z,18.09
2018-06-13T13:50:57.832Z,18.09
2018-06-13T13:52:21.263Z,18.07
2018-06-13T13:52:59.758Z,18.05
2018-06-13T13:53:58.352Z,17.99
2018-06-13T13:54:59.758Z,17.86
2018-06-13T13:56:19.830Z,17.84
2018-06-13T13:57:19.830Z,17.91
2018-06-13T13:58:04.824Z,17.77
2018-06-13T13:58:58.305Z,17.76
2018-06-13T13:59:59.326Z,17.68
2018-06-13T14:02:30.760Z,17.76
2018-06-13T14:03:32.713Z,17.68
2018-06-13T14:04:30.711Z,17.70
2018-06-13T14:05:31.222Z,17.68
2018-06-13T14:06:31.208Z,17.70
2018-06-13T14:07:31.211Z,17.65
2018-06-13T14:08:31.209Z,17.71
2018-06-13T14:09:31.711Z,17.68
2018-06-13T14:10:51.919Z,17.81
2018-06-13T14:11:31.715Z,17.70
2018-06-13T14:14:26.874Z,17.89
2018-06-13T14:15:24.879Z,17.81
2018-06-13T14:16:24.931Z,18.01
2018-06-13T14:17:05.309Z,17.99
2018-06-13T14:18:04.377Z,18.16
2018-06-13T14:19:25.379Z,18.07
2018-06-13T14:20:26.816Z,18.09
2018-06-13T14:21:03.827Z,18.16
2018-06-13T14:22:03.972Z,18.02
2018-06-13T14:24:37.638Z,18.04
2018-06-13T14:25:36.211Z,18.10
2018-06-13T14:26:36.219Z,17.98
2018-06-13T14:29:07.975Z,18.05
2018-06-13T14:30:29.011Z,18.09
2018-06-13T14:31:07.988Z,18.17
2018-06-13T14:33:39.756Z,18.04
2018-06-13T14:34:39.756Z,18.13
2018-06-13T14:35:39.782Z,18.11
2018-06-13T14:36:40.255Z,18.17
2018-06-13T14:37:40.254Z,18.09
2018-06-13T14:38:39.601Z,18.07
2018-06-13T14:39:40.686Z,17.95
2018-06-13T14:40:42.753Z,17.95
2018-06-13T14:41:39.848Z,17.92
2018-06-13T14:44:33.108Z,17.86
2018-06-13T14:45:34.124Z,17.89
2018-06-13T14:46:12.125Z,17.81
2018-06-13T14:48:43.874Z,17.77
2018-06-13T14:49:43.882Z,17.81
2018-06-13T14:50:43.935Z,17.79
2018-06-13T14:53:15.666Z,17.95
2018-06-13T14:54:15.675Z,18.01
2018-06-13T14:55:15.674Z,18.09
2018-06-13T14:58:08.428Z,18.11